sensor_id;sensor_type;location;lat;lon;timestamp;temperature;humidity
13123;DHT22;6627;50.920;12.050;2023-04-03T00:00:12;3.40;99.90
13123;DHT22;6627;50.920;12.050;2023-04-03T00:02:40;3.40;99.90
13123;DHT22;6627;50.920;12.050;2023-04-03T00:05:08;3.30;1.00
13123;DHT22;6627;50.920;12.050;2023-04-03T00:07:35;3.30;99.90
13123;DHT22;6627;50.920;12.050;2023-04-03T00:10:05;3.30;1.00
13123;DHT22;6627;50.920;12.050;2023-04-03T00:12:33;3.20;99.90
13123;DHT22;6627;50.920;12.050;2023-04-03T00:15:00;3.20;1.00
13123;DHT22;6627;50.920;12.050;2023-04-03T00:17:27;3.20;1.00
13123;DHT22;6627;50.920;12.050;2023-04-03T00:19:54;3.10;1.00
13123;DHT22;6627;50.920;12.050;2023-04-03T00:22:21;3.10;1.00
13123;DHT22;6627;50.920;12.050;2023-04-03T00:24:48;3.10;1.00
13123;DHT22;6627;50.920;12.050;2023-04-03T00:27:17;3.10;1.00
13123;DHT22;6627;50.920;12.050;2023-04-03T00:29:44;3.10;99.90
13123;DHT22;6627;50.920;12.050;2023-04-03T00:32:12;3.10;99.90
13123;DHT22;6627;50.920;12.050;2023-04-03T00:34:39;3.10;99.90
13123;DHT22;6627;50.920;12.050;2023-04-03T00:37:06;3.00;99.90
13123;DHT22;6627;50.920;12.050;2023-04-03T00:39:33;3.00;99.90
13123;DHT22;6627;50.920;12.050;2023-04-03T00:42:01;3.00;99.90
13123;DHT22;6627;50.920;12.050;2023-04-03T00:48:04;2.90;99.90
13123;DHT22;6627;50.920;12.050;2023-04-03T00:50:36;2.80;99.90
13123;DHT22;6627;50.920;12.050;2023-04-03T00:53:06;2.80;99.90
13123;DHT22;6627;50.920;12.050;2023-04-03T00:55:38;2.80;99.90
13123;DHT22;6627;50.920;12.050;2023-04-03T00:58:06;2.80;99.90
13123;DHT22;6627;50.920;12.050;2023-04-03T01:00:37;2.80;99.90
13123;DHT22;6627;50.920;12.050;2023-04-03T01:03:10;2.70;99.90
13123;DHT22;6627;50.920;12.050;2023-04-03T01:05:38;2.70;99.90
13123;DHT22;6627;50.920;12.050;2023-04-03T01:08:06;2.70;99.90
13123;DHT22;6627;50.920;12.050;2023-04-03T01:10:34;2.70;1.00
13123;DHT22;6627;50.920;12.050;2023-04-03T01:13:01;2.60;1.00
13123;DHT22;6627;50.920;12.050;2023-04-03T01:15:46;2.60;1.00
13123;DHT22;6627;50.920;12.050;2023-04-03T01:18:15;2.60;1.00
13123;DHT22;6627;50.920;12.050;2023-04-03T01:21:23;2.70;1.00
13123;DHT22;6627;50.920;12.050;2023-04-03T01:24:23;2.70;1.00
13123;DHT22;6627;50.920;12.050;2023-04-03T01:26:58;2.60;1.00
13123;DHT22;6627;50.920;12.050;2023-04-03T01:29:27;2.60;99.90
13123;DHT22;6627;50.920;12.050;2023-04-03T01:31:57;2.60;99.90
13123;DHT22;6627;50.920;12.050;2023-04-03T01:34:26;2.60;1.00
13123;DHT22;6627;50.920;12.050;2023-04-03T01:36:55;2.60;99.90
13123;DHT22;6627;50.920;12.050;2023-04-03T01:39:22;2.50;99.90
13123;DHT22;6627;50.920;12.050;2023-04-03T01:41:49;2.50;99.90
13123;DHT22;6627;50.920;12.050;2023-04-03T01:44:17;2.50;99.90
13123;DHT22;6627;50.920;12.050;2023-04-03T01:46:44;2.50;99.90
13123;DHT22;6627;50.920;12.050;2023-04-03T01:49:13;2.50;99.90
13123;DHT22;6627;50.920;12.050;2023-04-03T01:51:40;2.50;1.00
13123;DHT22;6627;50.920;12.050;2023-04-03T01:54:07;2.40;99.90
13123;DHT22;6627;50.920;12.050;2023-04-03T01:56:34;2.40;1.00
13123;DHT22;6627;50.920;12.050;2023-04-03T01:59:02;2.30;1.00
13123;DHT22;6627;50.920;12.050;2023-04-03T02:01:29;2.30;1.00
13123;DHT22;6627;50.920;12.050;2023-04-03T02:03:56;2.30;1.00
13123;DHT22;6627;50.920;12.050;2023-04-03T02:06:24;2.30;1.00
13123;DHT22;6627;50.920;12.050;2023-04-03T02:08:52;2.20;1.00
13123;DHT22;6627;50.920;12.050;2023-04-03T02:11:19;2.30;1.00
13123;DHT22;6627;50.920;12.050;2023-04-03T02:13:46;2.20;1.00
13123;DHT22;6627;50.920;12.050;2023-04-03T02:16:13;2.10;1.00
13123;DHT22;6627;50.920;12.050;2023-04-03T02:18:40;2.20;1.00
13123;DHT22;6627;50.920;12.050;2023-04-03T02:21:07;2.00;99.90
13123;DHT22;6627;50.920;12.050;2023-04-03T02:23:36;2.10;99.90
13123;DHT22;6627;50.920;12.050;2023-04-03T02:26:05;2.00;1.00
13123;DHT22;6627;50.920;12.050;2023-04-03T02:28:34;2.00;1.00
13123;DHT22;6627;50.920;12.050;2023-04-03T02:31:02;1.80;1.00
13123;DHT22;6627;50.920;12.050;2023-04-03T02:33:32;1.90;1.00
13123;DHT22;6627;50.920;12.050;2023-04-03T02:35:59;1.90;1.00
13123;DHT22;6627;50.920;12.050;2023-04-03T02:38:27;1.80;1.00
13123;DHT22;6627;50.920;12.050;2023-04-03T02:40:59;1.70;1.00
13123;DHT22;6627;50.920;12.050;2023-04-03T02:43:27;1.70;99.90
13123;DHT22;6627;50.920;12.050;2023-04-03T02:45:54;1.60;99.90
13123;DHT22;6627;50.920;12.050;2023-04-03T02:48:22;1.60;1.00
13123;DHT22;6627;50.920;12.050;2023-04-03T02:50:50;1.50;99.90
13123;DHT22;6627;50.920;12.050;2023-04-03T02:53:18;1.50;1.00
13123;DHT22;6627;50.920;12.050;2023-04-03T02:55:45;1.40;1.00
13123;DHT22;6627;50.920;12.050;2023-04-03T02:58:14;1.30;99.90
13123;DHT22;6627;50.920;12.050;2023-04-03T03:00:41;1.40;99.90
13123;DHT22;6627;50.920;12.050;2023-04-03T03:03:08;1.30;1.00
13123;DHT22;6627;50.920;12.050;2023-04-03T03:05:36;1.40;1.00
13123;DHT22;6627;50.920;12.050;2023-04-03T03:08:03;1.40;99.90
13123;DHT22;6627;50.920;12.050;2023-04-03T03:10:30;1.30;99.90
13123;DHT22;6627;50.920;12.050;2023-04-03T03:12:57;1.30;99.90
13123;DHT22;6627;50.920;12.050;2023-04-03T03:15:26;1.30;1.00
13123;DHT22;6627;50.920;12.050;2023-04-03T03:17:53;1.20;99.90
13123;DHT22;6627;50.920;12.050;2023-04-03T03:20:20;1.10;1.00
13123;DHT22;6627;50.920;12.050;2023-04-03T03:22:47;1.00;99.90
13123;DHT22;6627;50.920;12.050;2023-04-03T03:25:15;1.20;99.90
13123;DHT22;6627;50.920;12.050;2023-04-03T03:27:42;1.10;99.90
13123;DHT22;6627;50.920;12.050;2023-04-03T03:30:10;1.10;99.90
13123;DHT22;6627;50.920;12.050;2023-04-03T03:32:39;1.20;1.00
13123;DHT22;6627;50.920;12.050;2023-04-03T03:35:06;1.20;1.00
13123;DHT22;6627;50.920;12.050;2023-04-03T03:37:34;1.10;99.90
13123;DHT22;6627;50.920;12.050;2023-04-03T03:40:01;1.20;1.00
13123;DHT22;6627;50.920;12.050;2023-04-03T03:42:28;1.20;1.00
13123;DHT22;6627;50.920;12.050;2023-04-03T03:44:55;1.10;1.00
13123;DHT22;6627;50.920;12.050;2023-04-03T03:47:22;1.10;1.00
13123;DHT22;6627;50.920;12.050;2023-04-03T03:49:51;1.10;1.00
13123;DHT22;6627;50.920;12.050;2023-04-03T03:52:20;1.00;85.50
13123;DHT22;6627;50.920;12.050;2023-04-03T03:54:47;1.10;31.10
13123;DHT22;6627;50.920;12.050;2023-04-03T03:57:15;1.00;99.90
13123;DHT22;6627;50.920;12.050;2023-04-03T03:59:42;1.00;1.00
13123;DHT22;6627;50.920;12.050;2023-04-03T04:02:10;0.90;1.00
13123;DHT22;6627;50.920;12.050;2023-04-03T04:04:37;1.00;99.90
13123;DHT22;6627;50.920;12.050;2023-04-03T04:07:05;0.90;99.90
13123;DHT22;6627;50.920;12.050;2023-04-03T04:09:32;0.80;1.00
13123;DHT22;6627;50.920;12.050;2023-04-03T04:12:00;0.70;1.00
13123;DHT22;6627;50.920;12.050;2023-04-03T04:14:27;0.80;1.00
13123;DHT22;6627;50.920;12.050;2023-04-03T04:16:54;0.70;1.00
13123;DHT22;6627;50.920;12.050;2023-04-03T04:19:21;0.70;1.00
13123;DHT22;6627;50.920;12.050;2023-04-03T04:21:48;0.80;99.90
13123;DHT22;6627;50.920;12.050;2023-04-03T04:24:17;0.70;1.00
13123;DHT22;6627;50.920;12.050;2023-04-03T04:26:44;0.60;1.00
13123;DHT22;6627;50.920;12.050;2023-04-03T04:29:11;0.70;99.90
13123;DHT22;6627;50.920;12.050;2023-04-03T04:31:39;0.60;99.90
13123;DHT22;6627;50.920;12.050;2023-04-03T04:34:06;0.60;1.00
13123;DHT22;6627;50.920;12.050;2023-04-03T04:36:34;0.60;1.00
13123;DHT22;6627;50.920;12.050;2023-04-03T04:39:01;0.60;1.00
13123;DHT22;6627;50.920;12.050;2023-04-03T04:41:29;0.50;99.90
13123;DHT22;6627;50.920;12.050;2023-04-03T04:43:57;0.50;99.90
13123;DHT22;6627;50.920;12.050;2023-04-03T04:46:25;0.50;99.90
13123;DHT22;6627;50.920;12.050;2023-04-03T04:48:52;0.40;99.90
13123;DHT22;6627;50.920;12.050;2023-04-03T04:51:19;0.40;1.00
13123;DHT22;6627;50.920;12.050;2023-04-03T04:53:47;0.30;99.90
13123;DHT22;6627;50.920;12.050;2023-04-03T04:56:14;0.50;1.00
13123;DHT22;6627;50.920;12.050;2023-04-03T05:01:10;0.40;1.00
13123;DHT22;6627;50.920;12.050;2023-04-03T05:03:38;0.50;1.00
13123;DHT22;6627;50.920;12.050;2023-04-03T05:06:05;0.40;1.00
13123;DHT22;6627;50.920;12.050;2023-04-03T05:08:33;0.40;1.00
13123;DHT22;6627;50.920;12.050;2023-04-03T05:11:00;0.30;35.30
13123;DHT22;6627;50.920;12.050;2023-04-03T05:13:27;0.40;40.30
13123;DHT22;6627;50.920;12.050;2023-04-03T05:15:55;0.40;1.00
13123;DHT22;6627;50.920;12.050;2023-04-03T05:18:22;0.40;1.00
13123;DHT22;6627;50.920;12.050;2023-04-03T05:23:18;0.40;1.00
13123;DHT22;6627;50.920;12.050;2023-04-03T05:25:45;0.20;1.00
13123;DHT22;6627;50.920;12.050;2023-04-03T05:28:13;0.40;1.00
13123;DHT22;6627;50.920;12.050;2023-04-03T05:30:40;0.30;74.50
13123;DHT22;6627;50.920;12.050;2023-04-03T05:33:09;0.30;1.00
13123;DHT22;6627;50.920;12.050;2023-04-03T05:35:37;0.20;1.00
13123;DHT22;6627;50.920;12.050;2023-04-03T05:38:06;0.30;99.90
13123;DHT22;6627;50.920;12.050;2023-04-03T05:40:34;0.30;1.00
13123;DHT22;6627;50.920;12.050;2023-04-03T05:43:01;0.30;99.90
13123;DHT22;6627;50.920;12.050;2023-04-03T05:45:28;0.30;99.90
13123;DHT22;6627;50.920;12.050;2023-04-03T05:47:55;0.30;99.90
13123;DHT22;6627;50.920;12.050;2023-04-03T05:50:24;0.40;1.00
13123;DHT22;6627;50.920;12.050;2023-04-03T05:52:53;0.40;1.00
13123;DHT22;6627;50.920;12.050;2023-04-03T05:55:23;0.40;1.00
13123;DHT22;6627;50.920;12.050;2023-04-03T05:57:51;0.40;99.90
13123;DHT22;6627;50.920;12.050;2023-04-03T06:00:18;0.30;28.30
13123;DHT22;6627;50.920;12.050;2023-04-03T06:02:46;0.30;1.00
13123;DHT22;6627;50.920;12.050;2023-04-03T06:05:14;0.40;67.80
13123;DHT22;6627;50.920;12.050;2023-04-03T06:07:42;0.40;1.00
13123;DHT22;6627;50.920;12.050;2023-04-03T06:10:12;0.40;1.00
13123;DHT22;6627;50.920;12.050;2023-04-03T06:12:39;0.50;1.00
13123;DHT22;6627;50.920;12.050;2023-04-03T06:15:08;0.60;2.50
13123;DHT22;6627;50.920;12.050;2023-04-03T06:17:36;0.60;6.90
13123;DHT22;6627;50.920;12.050;2023-04-03T06:20:05;0.60;1.00
13123;DHT22;6627;50.920;12.050;2023-04-03T06:22:33;0.60;1.00
13123;DHT22;6627;50.920;12.050;2023-04-03T06:25:03;0.60;99.90
13123;DHT22;6627;50.920;12.050;2023-04-03T06:27:30;0.70;1.00
13123;DHT22;6627;50.920;12.050;2023-04-03T06:29:58;0.80;1.00
13123;DHT22;6627;50.920;12.050;2023-04-03T06:32:25;0.80;1.00
13123;DHT22;6627;50.920;12.050;2023-04-03T06:34:52;0.80;99.90
13123;DHT22;6627;50.920;12.050;2023-04-03T06:37:22;0.90;1.00
13123;DHT22;6627;50.920;12.050;2023-04-03T06:39:52;0.90;1.00
13123;DHT22;6627;50.920;12.050;2023-04-03T06:42:20;1.00;1.00
13123;DHT22;6627;50.920;12.050;2023-04-03T06:44:47;1.10;1.00
13123;DHT22;6627;50.920;12.050;2023-04-03T06:47:15;1.20;1.00
13123;DHT22;6627;50.920;12.050;2023-04-03T06:49:44;1.20;99.90
13123;DHT22;6627;50.920;12.050;2023-04-03T06:52:11;1.20;99.90
13123;DHT22;6627;50.920;12.050;2023-04-03T06:54:39;1.20;99.90
13123;DHT22;6627;50.920;12.050;2023-04-03T06:57:06;1.30;65.60
13123;DHT22;6627;50.920;12.050;2023-04-03T06:59:35;1.40;1.00
13123;DHT22;6627;50.920;12.050;2023-04-03T07:02:03;1.40;1.00
13123;DHT22;6627;50.920;12.050;2023-04-03T07:04:30;1.40;1.00
13123;DHT22;6627;50.920;12.050;2023-04-03T07:06:57;1.50;1.00
13123;DHT22;6627;50.920;12.050;2023-04-03T07:09:24;1.50;99.90
13123;DHT22;6627;50.920;12.050;2023-04-03T07:11:51;1.60;99.90
13123;DHT22;6627;50.920;12.050;2023-04-03T07:14:19;1.60;99.90
13123;DHT22;6627;50.920;12.050;2023-04-03T07:16:48;1.50;99.90
13123;DHT22;6627;50.920;12.050;2023-04-03T07:19:19;1.60;99.90
13123;DHT22;6627;50.920;12.050;2023-04-03T07:21:47;1.50;99.90
13123;DHT22;6627;50.920;12.050;2023-04-03T07:24:20;1.50;18.20
13123;DHT22;6627;50.920;12.050;2023-04-03T07:26:49;1.70;1.00
13123;DHT22;6627;50.920;12.050;2023-04-03T07:29:16;1.80;1.00
13123;DHT22;6627;50.920;12.050;2023-04-03T07:31:43;1.90;12.70
13123;DHT22;6627;50.920;12.050;2023-04-03T07:34:13;1.90;1.00
13123;DHT22;6627;50.920;12.050;2023-04-03T07:36:48;1.90;1.00
13123;DHT22;6627;50.920;12.050;2023-04-03T07:39:15;1.80;1.00
13123;DHT22;6627;50.920;12.050;2023-04-03T07:41:42;1.80;1.00
13123;DHT22;6627;50.920;12.050;2023-04-03T07:44:10;1.70;99.90
13123;DHT22;6627;50.920;12.050;2023-04-03T07:46:37;1.80;1.00
13123;DHT22;6627;50.920;12.050;2023-04-03T07:49:04;2.10;1.00
13123;DHT22;6627;50.920;12.050;2023-04-03T07:51:33;2.30;1.00
13123;DHT22;6627;50.920;12.050;2023-04-03T07:54:00;2.20;99.90
13123;DHT22;6627;50.920;12.050;2023-04-03T07:56:27;2.10;99.90
13123;DHT22;6627;50.920;12.050;2023-04-03T07:58:54;2.00;67.70
13123;DHT22;6627;50.920;12.050;2023-04-03T08:01:21;2.20;99.90
13123;DHT22;6627;50.920;12.050;2023-04-03T08:03:48;2.20;12.60
13123;DHT22;6627;50.920;12.050;2023-04-03T08:06:16;2.20;19.20
13123;DHT22;6627;50.920;12.050;2023-04-03T08:08:45;2.40;1.00
13123;DHT22;6627;50.920;12.050;2023-04-03T08:11:13;2.30;1.00
13123;DHT22;6627;50.920;12.050;2023-04-03T08:13:40;2.40;1.00
13123;DHT22;6627;50.920;12.050;2023-04-03T08:16:10;2.30;1.00
13123;DHT22;6627;50.920;12.050;2023-04-03T08:18:38;2.20;1.00
13123;DHT22;6627;50.920;12.050;2023-04-03T08:21:06;2.00;1.00
13123;DHT22;6627;50.920;12.050;2023-04-03T08:23:34;2.00;1.00
13123;DHT22;6627;50.920;12.050;2023-04-03T08:26:07;2.10;1.00
13123;DHT22;6627;50.920;12.050;2023-04-03T08:28:36;2.10;1.00
13123;DHT22;6627;50.920;12.050;2023-04-03T08:31:05;2.00;99.90
13123;DHT22;6627;50.920;12.050;2023-04-03T08:33:33;2.10;99.90
13123;DHT22;6627;50.920;12.050;2023-04-03T08:36:03;2.20;99.90
13123;DHT22;6627;50.920;12.050;2023-04-03T08:38:32;2.20;99.90
13123;DHT22;6627;50.920;12.050;2023-04-03T08:41:06;2.10;99.90
13123;DHT22;6627;50.920;12.050;2023-04-03T08:43:53;2.00;99.90
13123;DHT22;6627;50.920;12.050;2023-04-03T08:46:35;2.00;99.90
13123;DHT22;6627;50.920;12.050;2023-04-03T08:49:13;2.10;99.90
13123;DHT22;6627;50.920;12.050;2023-04-03T08:51:49;2.20;99.90
13123;DHT22;6627;50.920;12.050;2023-04-03T08:54:27;2.20;99.90
13123;DHT22;6627;50.920;12.050;2023-04-03T08:57:02;2.40;1.00
13123;DHT22;6627;50.920;12.050;2023-04-03T08:59:33;2.80;37.10
13123;DHT22;6627;50.920;12.050;2023-04-03T09:02:04;3.00;1.00
13123;DHT22;6627;50.920;12.050;2023-04-03T09:04:47;3.20;1.00
13123;DHT22;6627;50.920;12.050;2023-04-03T09:07:22;3.50;1.00
13123;DHT22;6627;50.920;12.050;2023-04-03T09:09:59;3.70;1.00
13123;DHT22;6627;50.920;12.050;2023-04-03T09:12:36;3.80;1.00
13123;DHT22;6627;50.920;12.050;2023-04-03T09:15:13;4.10;1.00
13123;DHT22;6627;50.920;12.050;2023-04-03T09:17:53;4.70;1.00
13123;DHT22;6627;50.920;12.050;2023-04-03T09:20:33;4.70;1.00
13123;DHT22;6627;50.920;12.050;2023-04-03T09:23:27;5.00;1.00
13123;DHT22;6627;50.920;12.050;2023-04-03T09:26:02;4.90;1.00
13123;DHT22;6627;50.920;12.050;2023-04-03T09:28:38;5.10;99.90
13123;DHT22;6627;50.920;12.050;2023-04-03T09:31:18;5.10;99.90
13123;DHT22;6627;50.920;12.050;2023-04-03T09:33:49;5.10;99.90
13123;DHT22;6627;50.920;12.050;2023-04-03T09:36:38;5.50;99.90
13123;DHT22;6627;50.920;12.050;2023-04-03T09:39:11;5.70;99.90
13123;DHT22;6627;50.920;12.050;2023-04-03T09:41:58;5.50;3.10
13123;DHT22;6627;50.920;12.050;2023-04-03T09:44:30;5.50;1.00
13123;DHT22;6627;50.920;12.050;2023-04-03T09:46:59;5.60;1.00
13123;DHT22;6627;50.920;12.050;2023-04-03T09:49:26;5.80;1.00
13123;DHT22;6627;50.920;12.050;2023-04-03T09:51:54;5.30;1.00
13123;DHT22;6627;50.920;12.050;2023-04-03T09:54:30;5.70;1.00
13123;DHT22;6627;50.920;12.050;2023-04-03T09:57:09;5.90;1.00
13123;DHT22;6627;50.920;12.050;2023-04-03T09:59:44;6.10;1.00
13123;DHT22;6627;50.920;12.050;2023-04-03T10:02:36;5.70;99.90
13123;DHT22;6627;50.920;12.050;2023-04-03T10:05:28;6.20;99.90
13123;DHT22;6627;50.920;12.050;2023-04-03T10:08:09;5.90;99.90
13123;DHT22;6627;50.920;12.050;2023-04-03T10:10:38;6.30;99.90
13123;DHT22;6627;50.920;12.050;2023-04-03T10:13:07;6.40;99.90
13123;DHT22;6627;50.920;12.050;2023-04-03T10:15:43;6.50;99.90
13123;DHT22;6627;50.920;12.050;2023-04-03T10:18:28;6.40;99.90
13123;DHT22;6627;50.920;12.050;2023-04-03T10:21:02;6.00;1.00
13123;DHT22;6627;50.920;12.050;2023-04-03T10:23:39;5.70;1.00
13123;DHT22;6627;50.920;12.050;2023-04-03T10:26:19;4.90;1.00
13123;DHT22;6627;50.920;12.050;2023-04-03T10:28:59;5.00;1.00
13123;DHT22;6627;50.920;12.050;2023-04-03T10:31:43;4.80;1.00
13123;DHT22;6627;50.920;12.050;2023-04-03T10:34:21;4.60;1.00
13123;DHT22;6627;50.920;12.050;2023-04-03T10:36:57;4.70;1.00
13123;DHT22;6627;50.920;12.050;2023-04-03T10:39:39;4.60;1.00
13123;DHT22;6627;50.920;12.050;2023-04-03T10:42:17;4.50;1.00
13123;DHT22;6627;50.920;12.050;2023-04-03T10:45:08;4.50;1.00
13123;DHT22;6627;50.920;12.050;2023-04-03T10:47:53;4.60;1.00
13123;DHT22;6627;50.920;12.050;2023-04-03T10:50:38;4.50;99.90
13123;DHT22;6627;50.920;12.050;2023-04-03T10:53:17;5.00;99.90
13123;DHT22;6627;50.920;12.050;2023-04-03T10:55:57;5.20;99.90
13123;DHT22;6627;50.920;12.050;2023-04-03T10:58:33;5.70;1.00
13123;DHT22;6627;50.920;12.050;2023-04-03T11:01:07;5.90;99.90
13123;DHT22;6627;50.920;12.050;2023-04-03T11:03:42;5.80;99.90
13123;DHT22;6627;50.920;12.050;2023-04-03T11:06:14;5.10;99.90
13123;DHT22;6627;50.920;12.050;2023-04-03T11:08:46;5.30;99.90
13123;DHT22;6627;50.920;12.050;2023-04-03T11:11:24;5.50;99.90
13123;DHT22;6627;50.920;12.050;2023-04-03T11:13:56;5.50;99.90
13123;DHT22;6627;50.920;12.050;2023-04-03T11:16:30;5.50;99.90
13123;DHT22;6627;50.920;12.050;2023-04-03T11:19:11;5.70;99.90
13123;DHT22;6627;50.920;12.050;2023-04-03T11:21:52;5.80;99.90
13123;DHT22;6627;50.920;12.050;2023-04-03T11:26:55;6.40;99.90
13123;DHT22;6627;50.920;12.050;2023-04-03T11:29:26;6.20;99.90
13123;DHT22;6627;50.920;12.050;2023-04-03T11:32:16;6.40;99.90
13123;DHT22;6627;50.920;12.050;2023-04-03T11:34:59;6.30;99.90
13123;DHT22;6627;50.920;12.050;2023-04-03T11:37:34;5.70;40.80
13123;DHT22;6627;50.920;12.050;2023-04-03T11:40:08;5.90;63.10
13123;DHT22;6627;50.920;12.050;2023-04-03T11:42:49;6.10;54.80
13123;DHT22;6627;50.920;12.050;2023-04-03T11:45:31;5.70;1.00
13123;DHT22;6627;50.920;12.050;2023-04-03T11:48:04;6.20;19.50
13123;DHT22;6627;50.920;12.050;2023-04-03T11:50:43;6.40;1.00
13123;DHT22;6627;50.920;12.050;2023-04-03T11:53:42;6.10;1.00
13123;DHT22;6627;50.920;12.050;2023-04-03T11:56:30;6.40;1.00
13123;DHT22;6627;50.920;12.050;2023-04-03T11:59:23;6.40;1.00
13123;DHT22;6627;50.920;12.050;2023-04-03T12:01:51;6.40;1.00
13123;DHT22;6627;50.920;12.050;2023-04-03T12:04:20;6.60;1.00
13123;DHT22;6627;50.920;12.050;2023-04-03T12:10:17;7.20;1.00
13123;DHT22;6627;50.920;12.050;2023-04-03T12:12:56;7.10;1.00
13123;DHT22;6627;50.920;12.050;2023-04-03T12:15:55;7.10;1.00
13123;DHT22;6627;50.920;12.050;2023-04-03T12:18:59;6.80;1.00
13123;DHT22;6627;50.920;12.050;2023-04-03T12:22:08;6.00;1.00
13123;DHT22;6627;50.920;12.050;2023-04-03T12:24:48;6.20;1.00
13123;DHT22;6627;50.920;12.050;2023-04-03T12:27:23;6.40;1.00
13123;DHT22;6627;50.920;12.050;2023-04-03T12:33:10;6.10;1.00
13123;DHT22;6627;50.920;12.050;2023-04-03T12:35:58;6.10;1.00
13123;DHT22;6627;50.920;12.050;2023-04-03T12:38:48;6.40;1.00
13123;DHT22;6627;50.920;12.050;2023-04-03T12:41:37;6.30;1.00
13123;DHT22;6627;50.920;12.050;2023-04-03T12:44:35;6.30;1.00
13123;DHT22;6627;50.920;12.050;2023-04-03T12:47:22;5.90;1.00
13123;DHT22;6627;50.920;12.050;2023-04-03T12:49:53;5.50;1.00
13123;DHT22;6627;50.920;12.050;2023-04-03T12:55:11;6.30;1.00
13123;DHT22;6627;50.920;12.050;2023-04-03T12:57:41;6.50;1.00
13123;DHT22;6627;50.920;12.050;2023-04-03T13:00:30;6.70;1.00
13123;DHT22;6627;50.920;12.050;2023-04-03T13:03:01;7.10;1.00
13123;DHT22;6627;50.920;12.050;2023-04-03T13:05:31;7.10;1.00
13123;DHT22;6627;50.920;12.050;2023-04-03T13:08:02;6.90;1.00
13123;DHT22;6627;50.920;12.050;2023-04-03T13:10:45;6.80;1.00
13123;DHT22;6627;50.920;12.050;2023-04-03T13:13:19;6.60;99.90
13123;DHT22;6627;50.920;12.050;2023-04-03T13:15:49;6.20;99.90
13123;DHT22;6627;50.920;12.050;2023-04-03T13:18:27;6.60;99.90
13123;DHT22;6627;50.920;12.050;2023-04-03T13:21:01;6.60;99.90
13123;DHT22;6627;50.920;12.050;2023-04-03T13:23:32;6.40;99.90
13123;DHT22;6627;50.920;12.050;2023-04-03T13:26:04;6.30;99.90
13123;DHT22;6627;50.920;12.050;2023-04-03T13:28:33;6.60;99.90
13123;DHT22;6627;50.920;12.050;2023-04-03T13:31:06;6.90;99.90
13123;DHT22;6627;50.920;12.050;2023-04-03T13:33:37;6.90;99.90
13123;DHT22;6627;50.920;12.050;2023-04-03T13:36:08;6.60;99.90
13123;DHT22;6627;50.920;12.050;2023-04-03T13:38:44;6.20;99.90
13123;DHT22;6627;50.920;12.050;2023-04-03T13:41:31;6.10;99.90
13123;DHT22;6627;50.920;12.050;2023-04-03T13:44:23;6.00;99.90
13123;DHT22;6627;50.920;12.050;2023-04-03T13:46:56;6.30;99.90
13123;DHT22;6627;50.920;12.050;2023-04-03T13:49:31;6.80;99.90
13123;DHT22;6627;50.920;12.050;2023-04-03T13:52:03;6.80;99.90
13123;DHT22;6627;50.920;12.050;2023-04-03T13:54:52;6.70;99.90
13123;DHT22;6627;50.920;12.050;2023-04-03T13:57:23;6.10;99.90
13123;DHT22;6627;50.920;12.050;2023-04-03T13:59:51;6.30;99.90
13123;DHT22;6627;50.920;12.050;2023-04-03T14:02:22;6.40;99.90
13123;DHT22;6627;50.920;12.050;2023-04-03T14:04:57;6.20;99.90
13123;DHT22;6627;50.920;12.050;2023-04-03T14:07:28;6.00;99.90
13123;DHT22;6627;50.920;12.050;2023-04-03T14:09:57;5.90;99.90
13123;DHT22;6627;50.920;12.050;2023-04-03T14:12:27;5.80;99.90
13123;DHT22;6627;50.920;12.050;2023-04-03T14:14:58;5.90;99.90
13123;DHT22;6627;50.920;12.050;2023-04-03T14:17:27;5.90;99.90
13123;DHT22;6627;50.920;12.050;2023-04-03T14:19:56;5.80;99.90
13123;DHT22;6627;50.920;12.050;2023-04-03T14:22:26;5.70;99.90
13123;DHT22;6627;50.920;12.050;2023-04-03T14:24:55;5.90;99.90
13123;DHT22;6627;50.920;12.050;2023-04-03T14:27:26;5.80;99.90
13123;DHT22;6627;50.920;12.050;2023-04-03T14:29:57;5.60;99.90
13123;DHT22;6627;50.920;12.050;2023-04-03T14:32:27;5.40;99.90
13123;DHT22;6627;50.920;12.050;2023-04-03T14:34:55;5.60;99.90
13123;DHT22;6627;50.920;12.050;2023-04-03T14:37:25;5.70;99.90
13123;DHT22;6627;50.920;12.050;2023-04-03T14:39:56;5.70;99.90
13123;DHT22;6627;50.920;12.050;2023-04-03T14:42:28;5.60;99.90
13123;DHT22;6627;50.920;12.050;2023-04-03T14:44:58;5.80;99.90
13123;DHT22;6627;50.920;12.050;2023-04-03T14:47:28;5.70;99.90
13123;DHT22;6627;50.920;12.050;2023-04-03T14:49:57;5.70;99.90
13123;DHT22;6627;50.920;12.050;2023-04-03T14:52:28;5.40;99.90
13123;DHT22;6627;50.920;12.050;2023-04-03T14:54:58;5.40;99.90
13123;DHT22;6627;50.920;12.050;2023-04-03T14:57:29;5.40;99.90
13123;DHT22;6627;50.920;12.050;2023-04-03T14:59:57;5.40;99.90
13123;DHT22;6627;50.920;12.050;2023-04-03T15:02:28;5.30;99.90
13123;DHT22;6627;50.920;12.050;2023-04-03T15:04:58;5.30;99.90
13123;DHT22;6627;50.920;12.050;2023-04-03T15:07:28;5.20;99.90
13123;DHT22;6627;50.920;12.050;2023-04-03T15:09:56;5.30;99.90
13123;DHT22;6627;50.920;12.050;2023-04-03T15:12:23;5.30;99.90
13123;DHT22;6627;50.920;12.050;2023-04-03T15:14:53;5.40;99.90
13123;DHT22;6627;50.920;12.050;2023-04-03T15:17:22;5.40;99.90
13123;DHT22;6627;50.920;12.050;2023-04-03T15:19:50;5.10;99.90
13123;DHT22;6627;50.920;12.050;2023-04-03T15:22:20;5.00;99.90
13123;DHT22;6627;50.920;12.050;2023-04-03T15:24:48;5.00;99.90
13123;DHT22;6627;50.920;12.050;2023-04-03T15:27:15;5.10;99.90
13123;DHT22;6627;50.920;12.050;2023-04-03T15:29:43;5.10;99.90
13123;DHT22;6627;50.920;12.050;2023-04-03T15:32:13;5.20;99.90
13123;DHT22;6627;50.920;12.050;2023-04-03T15:34:40;5.10;99.90
13123;DHT22;6627;50.920;12.050;2023-04-03T15:37:08;5.10;99.90
13123;DHT22;6627;50.920;12.050;2023-04-03T15:39:35;5.10;99.90
13123;DHT22;6627;50.920;12.050;2023-04-03T15:42:03;4.90;99.90
13123;DHT22;6627;50.920;12.050;2023-04-03T15:44:32;5.00;99.90
13123;DHT22;6627;50.920;12.050;2023-04-03T15:47:01;5.00;99.90
13123;DHT22;6627;50.920;12.050;2023-04-03T15:49:32;5.10;99.90
13123;DHT22;6627;50.920;12.050;2023-04-03T15:52:01;5.00;99.90
13123;DHT22;6627;50.920;12.050;2023-04-03T15:54:28;5.00;99.90
13123;DHT22;6627;50.920;12.050;2023-04-03T15:56:56;4.90;99.90
13123;DHT22;6627;50.920;12.050;2023-04-03T15:59:23;4.90;99.90
13123;DHT22;6627;50.920;12.050;2023-04-03T16:01:51;5.10;99.90
13123;DHT22;6627;50.920;12.050;2023-04-03T16:04:19;4.80;99.90
13123;DHT22;6627;50.920;12.050;2023-04-03T16:06:49;4.90;99.90
13123;DHT22;6627;50.920;12.050;2023-04-03T16:09:17;5.00;99.90
13123;DHT22;6627;50.920;12.050;2023-04-03T16:11:44;5.00;99.90
13123;DHT22;6627;50.920;12.050;2023-04-03T16:14:12;5.00;99.90
13123;DHT22;6627;50.920;12.050;2023-04-03T16:16:39;4.90;99.90
13123;DHT22;6627;50.920;12.050;2023-04-03T16:19:07;4.90;99.90
13123;DHT22;6627;50.920;12.050;2023-04-03T16:21:35;4.80;99.90
13123;DHT22;6627;50.920;12.050;2023-04-03T16:24:05;4.80;99.90
13123;DHT22;6627;50.920;12.050;2023-04-03T16:26:32;4.70;99.90
13123;DHT22;6627;50.920;12.050;2023-04-03T16:29:00;4.70;99.90
13123;DHT22;6627;50.920;12.050;2023-04-03T16:31:27;4.60;99.90
13123;DHT22;6627;50.920;12.050;2023-04-03T16:33:55;4.60;99.90
13123;DHT22;6627;50.920;12.050;2023-04-03T16:36:24;4.60;99.90
13123;DHT22;6627;50.920;12.050;2023-04-03T16:38:53;4.50;99.90